鳥取空港の過去48時間の天気

鳥取空港 (Tottori)

現在時刻: 9/28 17:01 JST (9/28 08:01 UTC) 以下の時間は現地時間です。

過去48時間のMETAR気象情報
時間 風向 風速(m/s) 視程 気温(℃) 湿度(%) 気圧(hPa) 天気現象
28 16:00 北東 7 10km以上 22 60 1013
28 15:00 北東 6 10km以上 23 61 1014
28 14:00 北東 8 10km以上 24 57 1014
28 13:00 北東 7 10km以上 23 61 1014
28 12:00 北北東 7 10km以上 22 65 1015
28 11:00 北北東 6 10km以上 23 61 1015
28 10:00 北北東 6 10km以上 23 57 1016
28 09:00 北北東 7 10km以上 22 65 1016
28 08:00 北北東 8 10km以上 21 73 1016 弱いしゅう雨
28 07:00 6 10km以上 21 73 1016 周辺でしゅう雨
28 06:30 9 10km以上 20 73 1015 周辺でしゅう雨
28 06:10 北北東 8 10km以上 21 69 1015
27 21:00 9 10km以上 21 64 1015
27 20:00 9 10km以上 21 69 1015
27 19:00 9 10km以上 21 69 1014 弱いしゅう雨
27 18:00 9 10km以上 20 73 1014 周辺でしゅう雨
27 17:00 9 10km以上 21 73 1014
27 16:00 9 10km以上 22 69 1014
27 15:00 8 10km以上 21 73 1014
27 14:00 8 10km以上 21 78 1014 弱いしゅう雨
27 13:00 8 10km以上 22 65 1014 周辺でしゅう雨
27 12:00 8 10km以上 23 61 1014 周辺でしゅう雨
27 11:00 9 10km以上 22 69 1015 周辺でしゅう雨
27 10:00 8 10km以上 24 57 1014 周辺でしゅう雨
27 09:00 8 10km以上 22 69 1014 周辺でしゅう雨
27 08:00 9 10km以上 22 65 1014 周辺でしゅう雨
27 07:00 9 10km以上 22 73 1013 周辺でしゅう雨
27 06:30 9 10km以上 21 73 1013 周辺でしゅう雨
26 21:00 10 10km以上 22 83 1011
26 20:00 9 10km以上 22 83 1011 周辺でしゅう雨
26 19:00 北北東 9 7000m 21 88 1010 弱いしゅう雨
26 18:00 9 10km以上 22 83 1010
RJOR 280700Z 05013KT 9999 FEW030 SCT040 22/14 Q1013
RJOR 280600Z 05012KT 9999 FEW030 SCT040 23/15 Q1014
RJOR 280500Z 05015KT 9999 FEW030 SCT040 BKN060 24/15 Q1014
RJOR 280400Z 05014KT 9999 FEW035 BKN060 23/15 Q1014
RJOR 280300Z 03013KT 9999 FEW030 SCT040 BKN060 22/15 Q1015
RJOR 280200Z 03011KT 9999 FEW030 SCT040 23/15 Q1015
RJOR 280100Z 03011KT 9999 FEW030 SCT040 23/14 Q1016
RJOR 280000Z 03014KT 9999 FEW030 SCT040 22/15 Q1016
RJOR 272300Z 02016KT 9999 -SHRA FEW030 SCT040 BKN060 21/16 Q1016
RJOR 272200Z 35011KT 9999 VCSH FEW020 SCT030 BKN070 21/16 Q1016
RJOR 272130Z 36017KT 9999 VCSH FEW030 BKN070 20/15 Q1015
RJOR 272110Z 02016KT 9999 FEW030 BKN070 21/15 Q1015 RMK 2CU030 5AC070 A3000
RJOR 271200Z 01017KT 9999 FEW020 SCT040 BKN070 21/14 Q1015
RJOR 271100Z 36018KT 9999 FEW020 SCT040 BKN070 21/15 Q1015
RJOR 271000Z 36018KT 9999 -SHRA FEW020 SCT040 BKN070 21/15 Q1014
RJOR 270900Z 36017KT 9999 VCSH FEW020 SCT040 BKN080 20/15 Q1014
RJOR 270800Z 36017KT 9999 FEW020 SCT040 BKN070 21/16 Q1014
RJOR 270700Z 36017KT 9999 FEW020 SCT040 BKN070 22/16 Q1014
RJOR 270600Z 01015KT 9999 FEW020 SCT040 BKN070 21/16 Q1014
RJOR 270500Z 35015KT 9999 -SHRA FEW020 SCT030 BKN040 21/17 Q1014
RJOR 270400Z 35015KT 9999 VCSH FEW020 SCT030 BKN040 22/15 Q1014
RJOR 270300Z 35016KT 9999 VCSH FEW030 SCT040 BKN070 23/15 Q1014
RJOR 270200Z 36018KT 9999 VCSH FEW020 SCT030 BKN040 22/16 Q1015
RJOR 270100Z 01016KT 9999 VCSH FEW020 SCT030 BKN060 24/15 Q1014
RJOR 270000Z 36016KT 9999 VCSH FEW020 SCT030 BKN040 22/16 Q1014
RJOR 262300Z 35018KT 9999 VCSH FEW020 SCT030 BKN060 22/15 Q1014
RJOR 262200Z 01018KT 9999 VCSH FEW015 SCT030 BKN040 22/17 Q1013
RJOR 262130Z 01017KT 9999 VCSH FEW015 SCT030 BKN040 21/16 Q1013
RJOR 261200Z 36019KT 9999 FEW015 SCT030 BKN040 22/19 Q1011
RJOR 261100Z 36018KT 9999 VCSH FEW015 FEW025CB SCT035 BKN045 22/19 Q1011
RJOR 261000Z 02018KT 7000 -SHRA FEW015 FEW025CB SCT035 BKN045 21/19 Q1010
RJOR 260900Z 36017KT 9999 FEW015 SCT030 BKN045 22/19 Q1010